Time;durP1;ratioP1;P1;durP2;ratioP2;P2;SDS_P1;SDS_P2;PMS_P1;PMS_P2;Temp;Humidity;BMP_temperature;BMP_pressure;BME280_temperature;BME280_humidity;BME280_pressure;Samples;Min_cycle;Max_cycle;Signal;HPM_P1;HPM_P2
2021/04/10 00:01:08;;;;;;;;;;;;;;;23.20;37.86;100045.03;4376355;32;33972;-55
2021/04/10 00:03:35;;;;;;;;;;;;;;;23.19;37.90;100048.81;4367739;32;33599;-56
2021/04/10 00:06:02;;;;;;;;;;;;;;;23.18;38.01;100037.09;4390927;32;34131;-59
2021/04/10 00:08:29;;;;;;;;;;;;;;;23.16;38.02;100042.72;4379241;32;34749;-58
2021/04/10 00:10:56;;;;;;;;;;;;;;;23.15;38.02;100035.62;4380703;32;33676;-58
2021/04/10 00:13:23;;;;;;;;;;;;;;;23.16;38.04;100029.12;4390795;32;34947;-60
2021/04/10 00:15:49;;;;;;;;;;;;;;;23.15;38.08;100038.34;4392200;32;33873;-56
2021/04/10 00:18:16;;;;;;;;;;;;;;;23.15;38.06;100034.78;4392473;32;34825;-58
2021/04/10 00:20:43;;;;;;;;;;;;;;;23.14;38.01;100044.84;4392307;32;33296;-58
2021/04/10 00:23:10;;;;;;;;;;;;;;;23.13;38.08;100047.81;4393320;32;34580;-57
2021/04/10 00:25:37;;;;;;;;;;;;;;;23.13;38.09;100045.06;4392114;32;34883;-59
2021/04/10 00:28:04;;;;;;;;;;;;;;;23.11;38.06;100036.28;4383461;32;34132;-59
2021/04/10 00:30:31;;;;;;;;;;;;;;;23.10;38.12;100034.63;4379802;32;33598;-60
2021/04/10 00:32:58;;;;;;;;;;;;;;;23.10;38.15;100034.63;4392852;32;34329;-59
2021/04/10 00:35:25;;;;;;;;;;;;;;;23.09;38.17;100031.06;4392252;32;34168;-61
2021/04/10 00:37:51;;;;;;;;;;;;;;;23.08;38.15;100032.12;4392017;32;35064;-59
2021/04/10 00:40:18;;;;;;;;;;;;;;;23.07;38.08;100037.75;4392148;32;33559;-57
2021/04/10 00:42:45;;;;;;;;;;;;;;;23.06;38.18;100031.50;4386989;32;34054;-59
2021/04/10 00:45:12;;;;;;;;;;;;;;;23.06;38.16;100030.66;4377836;32;34235;-53
2021/04/10 00:47:40;;;;;;;;;;;;;;;23.05;38.16;100027.09;4386436;32;34018;-58
2021/04/10 00:50:07;;;;;;;;;;;;;;;23.05;38.15;100029.81;4377558;32;33335;-59
2021/04/10 00:52:34;;;;;;;;;;;;;;;23.04;38.27;100033.59;4377892;32;33920;-58
2021/04/10 00:55:02;;;;;;;;;;;;;;;23.04;38.26;100028.16;4364045;32;34067;-60
2021/04/10 00:57:29;;;;;;;;;;;;;;;23.04;38.16;100021.88;4386029;32;34067;-59
2021/04/10 00:59:56;;;;;;;;;;;;;;;23.04;38.16;100027.34;4386360;32;33290;-59
2021/04/10 01:02:23;;;;;;;;;;;;;;;23.04;38.18;100019.16;4392076;32;33537;-59
2021/04/10 01:04:50;;;;;;;;;;;;;;;23.04;38.25;100019.16;4378109;32;34063;-60
2021/04/10 01:07:17;;;;;;;;;;;;;;;23.02;38.22;100024.81;4391914;32;34159;-57
2021/04/10 01:09:48;;;;;;;;;;;;;;;23.03;38.30;100014.75;4392998;32;32825;-59
2021/04/10 01:12:17;;;;;;;;;;;;;;;23.02;38.27;100015.81;4391389;32;34021;-56
2021/04/10 01:14:44;;;;;;;;;;;;;;;23.01;38.28;100023.16;4379006;32;34192;-59
2021/04/10 01:17:12;;;;;;;;;;;;;;;23.00;38.28;100018.75;4391662;32;32983;-60
2021/04/10 01:19:58;;;;;;;;;;;;;;;23.00;38.30;100017.94;4392725;32;32887;-58
2021/04/10 01:22:44;;;;;;;;;;;;;;;22.99;38.25;100006.22;4391068;32;34118;-59
2021/04/10 01:25:14;;;;;;;;;;;;;;;23.00;38.28;100016.03;4391276;32;34886;-56
2021/04/10 01:27:43;;;;;;;;;;;;;;;22.97;38.36;100011.03;4375519;32;34503;-56
2021/04/10 01:30:10;;;;;;;;;;;;;;;22.97;38.41;100000.16;4391132;32;33471;-60
2021/04/10 01:32:58;;;;;;;;;;;;;;;22.97;38.47;100000.16;4392696;32;34173;-59
2021/04/10 01:35:27;;;;;;;;;;;;;;;22.98;38.46;100000.97;4391543;32;34013;-61
2021/04/10 01:37:58;;;;;;;;;;;;;;;22.97;38.48;99997.41;4372121;32;34041;-57
2021/04/10 01:40:26;;;;;;;;;;;;;;;22.97;38.28;99996.59;4379110;32;32857;-59
2021/04/10 01:42:54;;;;;;;;;;;;;;;22.97;38.40;99996.59;4391537;32;34116;-58
2021/04/10 01:45:21;;;;;;;;;;;;;;;22.96;38.36;99992.22;4378217;32;35032;-54
2021/04/10 01:47:48;;;;;;;;;;;;;;;22.97;38.38;99985.72;4378011;32;34151;-56
2021/04/10 01:50:16;;;;;;;;;;;;;;;22.95;38.32;99996.81;4377806;32;33342;-57
2021/04/10 01:52:46;;;;;;;;;;;;;;;22.94;38.36;99992.41;4378373;32;34278;-61
2021/04/10 01:55:14;;;;;;;;;;;;;;;22.95;38.37;99988.66;4378212;32;34191;-60
2021/04/10 01:57:41;;;;;;;;;;;;;;;22.94;38.39;99994.28;4365210;32;34131;-58
2021/04/10 02:00:09;;;;;;;;;;;;;;;22.94;38.41;99994.28;4378413;32;32866;-59
2021/04/10 02:02:40;;;;;;;;;;;;;;;22.93;38.43;100001.62;4377244;32;33855;-59
2021/04/10 02:05:10;;;;;;;;;;;;;;;22.93;38.46;99998.91;4378413;32;34693;-58
2021/04/10 02:07:37;;;;;;;;;;;;;;;22.92;38.44;100002.69;4378487;32;34068;-54
2021/04/10 02:10:05;;;;;;;;;;;;;;;22.92;38.46;100003.53;4392290;32;32996;-59
2021/04/10 02:12:32;;;;;;;;;;;;;;;22.92;38.41;99992.63;4377229;32;32560;-59
2021/04/10 02:14:59;;;;;;;;;;;;;;;22.92;38.39;99992.63;4378688;32;33741;-59
2021/04/10 02:17:27;;;;;;;;;;;;;;;22.92;38.37;99995.34;4391628;32;34693;-59
2021/04/10 02:19:55;;;;;;;;;;;;;;;22.91;38.47;99995.59;4378033;32;33531;-58
2021/04/10 02:22:23;;;;;;;;;;;;;;;22.90;38.45;99992.03;4390715;32;34160;-57
2021/04/10 02:24:50;;;;;;;;;;;;;;;22.90;38.40;99992.03;4392331;32;34901;-60
2021/04/10 02:27:18;;;;;;;;;;;;;;;22.90;38.43;99988.47;4391987;32;34699;-57
2021/04/10 02:29:45;;;;;;;;;;;;;;;22.88;38.44;99988.66;4391649;32;33279;-60
2021/04/10 02:32:15;;;;;;;;;;;;;;;22.88;38.39;99987.81;4378643;32;34032;-59
2021/04/10 02:34:44;;;;;;;;;;;;;;;22.88;38.48;99985.09;4377847;32;34957;-55
2021/04/10 02:37:11;;;;;;;;;;;;;;;22.87;38.48;99991.59;4390298;32;33636;-59
2021/04/10 02:39:39;;;;;;;;;;;;;;;22.86;38.50;99993.47;4391066;32;32922;-59
2021/04/10 02:42:07;;;;;;;;;;;;;;;22.86;38.45;99985.31;4370183;32;34789;-59
2021/04/10 02:44:39;;;;;;;;;;;;;;;22.86;38.41;99982.59;4378632;32;35584;-56
2021/04/10 02:47:07;;;;;;;;;;;;;;;22.86;38.59;99976.34;4377714;32;34043;-60
2021/04/10 02:49:38;;;;;;;;;;;;;;;22.85;38.53;99988.28;4392057;32;33342;-58
2021/04/10 02:52:06;;;;;;;;;;;;;;;22.83;38.55;99988.47;4367523;32;33581;-58
2021/04/10 02:54:42;;;;;;;;;;;;;;;22.84;38.51;99989.31;4363283;32;35015;-58
2021/04/10 02:57:10;;;;;;;;;;;;;;;22.83;38.51;99985.75;4375224;32;34039;-61
2021/04/10 02:59:39;;;;;;;;;;;;;;;22.83;38.56;99976.75;4391889;32;34073;-60
2021/04/10 03:02:07;;;;;;;;;;;;;;;22.84;38.47;99981.13;4377020;32;34008;-56
2021/04/10 03:04:34;;;;;;;;;;;;;;;22.83;38.47;99974.88;4376990;32;33629;-60
2021/04/10 03:07:03;;;;;;;;;;;;;;;22.83;38.44;99974.88;4374550;32;34346;-59
2021/04/10 03:09:30;;;;;;;;;;;;;;;22.83;38.60;99990.34;4378484;32;33523;-59
2021/04/10 03:11:58;;;;;;;;;;;;;;;22.82;38.63;99984.09;4390075;32;34161;-57
2021/04/10 03:14:25;;;;;;;;;;;;;;;22.83;38.67;99983.03;4391073;32;34077;-59
2021/04/10 03:16:53;;;;;;;;;;;;;;;22.82;38.61;99978.66;4391395;32;34049;-56
2021/04/10 03:19:21;;;;;;;;;;;;;;;22.81;38.57;99978.87;4378341;32;32875;-60
2021/04/10 03:21:49;;;;;;;;;;;;;;;22.81;38.66;99968.81;4376238;32;33778;-60
2021/04/10 03:24:15;;;;;;;;;;;;;;;22.81;38.69;99968.00;4391770;32;33659;-59
2021/04/10 03:26:43;;;;;;;;;;;;;;;22.80;38.57;99972.59;4391384;32;33651;-53
2021/04/10 03:29:11;;;;;;;;;;;;;;;22.80;38.70;99969.87;4377237;32;32792;-59
2021/04/10 03:31:39;;;;;;;;;;;;;;;22.79;38.71;99976.34;4391202;32;34117;-58
2021/04/10 03:34:07;;;;;;;;;;;;;;;22.78;38.75;99979.31;4377662;32;34174;-60
2021/04/10 03:36:33;;;;;;;;;;;;;;;22.80;38.66;99988.06;4391551;32;34108;-61
2021/04/10 03:39:00;;;;;;;;;;;;;;;22.78;38.73;99984.75;4391321;32;33296;-58
2021/04/10 03:41:28;;;;;;;;;;;;;;;22.77;38.69;99983.06;4385990;32;34760;-60
2021/04/10 03:43:55;;;;;;;;;;;;;;;22.76;38.68;99984.13;4371961;32;34064;-59
2021/04/10 03:46:22;;;;;;;;;;;;;;;22.76;38.66;99997.75;4391428;32;34301;-57
2021/04/10 03:48:49;;;;;;;;;;;;;;;22.75;38.70;99991.44;4377225;32;31911;-60
2021/04/10 03:51:17;;;;;;;;;;;;;;;22.75;38.70;99988.72;4377300;32;34203;-58
2021/04/10 03:53:44;;;;;;;;;;;;;;;22.75;38.69;99990.59;4391548;32;34981;-57
2021/04/10 03:56:12;;;;;;;;;;;;;;;22.74;38.69;99991.66;4390770;32;34553;-57
2021/04/10 03:58:38;;;;;;;;;;;;;;;22.74;38.68;99991.66;4391317;32;34279;-57
2021/04/10 04:01:06;;;;;;;;;;;;;;;22.73;38.73;99995.44;4390409;32;34916;-59
2021/04/10 04:03:35;;;;;;;;;;;;;;;22.74;38.75;99997.09;4390701;32;33689;-60
2021/04/10 04:06:01;;;;;;;;;;;;;;;22.72;38.69;100000.06;4390130;32;33828;-57
2021/04/10 04:08:28;;;;;;;;;;;;;;;22.73;38.75;100000.88;4391210;32;33209;-59
2021/04/10 04:10:55;;;;;;;;;;;;;;;22.73;38.67;100000.88;4390576;32;34771;-59
2021/04/10 04:13:22;;;;;;;;;;;;;;;22.72;38.80;100000.06;4390154;32;34860;-60
2021/04/10 04:15:49;;;;;;;;;;;;;;;22.72;38.70;100001.94;4386877;32;34068;-59
2021/04/10 04:18:16;;;;;;;;;;;;;;;22.72;38.79;99991.88;4376001;32;33217;-59
2021/04/10 04:20:43;;;;;;;;;;;;;;;22.72;38.73;99993.78;4378819;32;34860;-58
2021/04/10 04:23:09;;;;;;;;;;;;;;;22.71;38.70;99995.66;4391020;32;33875;-60
2021/04/10 04:25:36;;;;;;;;;;;;;;;22.71;38.69;100002.97;4389598;32;34850;-59
2021/04/10 04:28:04;;;;;;;;;;;;;;;22.70;38.73;99996.69;4390680;32;33361;-54
2021/04/10 04:30:30;;;;;;;;;;;;;;;22.70;38.73;99993.16;4390215;32;34991;-59
2021/04/10 04:32:58;;;;;;;;;;;;;;;22.69;38.68;99986.88;4389815;32;33763;-60
2021/04/10 04:35:24;;;;;;;;;;;;;;;22.70;38.69;99993.16;4375332;32;34121;-55
2021/04/10 04:37:51;;;;;;;;;;;;;;;22.70;38.66;99996.69;4382061;32;33238;-58
2021/04/10 04:40:18;;;;;;;;;;;;;;;22.70;38.73;100004.03;4390663;32;34884;-58
2021/04/10 04:42:45;;;;;;;;;;;;;;;22.71;38.83;100000.25;4385155;32;33748;-57
2021/04/10 04:45:12;;;;;;;;;;;;;;;22.70;38.78;99999.41;4375475;32;33938;-59
2021/04/10 04:47:39;;;;;;;;;;;;;;;22.71;38.79;100005.69;4375949;32;33597;-55
2021/04/10 04:50:06;;;;;;;;;;;;;;;22.70;38.75;100002.13;4390421;32;34309;-59
2021/04/10 04:52:33;;;;;;;;;;;;;;;22.70;38.79;100007.56;4389931;32;34249;-58
2021/04/10 04:55:00;;;;;;;;;;;;;;;22.70;38.67;100004.03;4390536;32;34038;-59
2021/04/10 04:57:26;;;;;;;;;;;;;;;22.69;38.67;100005.91;4378018;32;33344;-62
2021/04/10 04:59:53;;;;;;;;;;;;;;;22.69;38.79;100005.09;4388706;32;34735;-55
2021/04/10 05:02:20;;;;;;;;;;;;;;;22.67;38.86;100008.84;4396994;32;34545;-58
2021/04/10 05:04:47;;;;;;;;;;;;;;;22.69;38.80;100007.81;4399187;32;33990;-58
2021/04/10 05:07:14;;;;;;;;;;;;;;;22.67;38.76;100011.59;4378645;32;33281;-56
2021/04/10 05:09:41;;;;;;;;;;;;;;;22.67;38.85;100008.84;4392547;32;34088;-56
2021/04/10 05:12:09;;;;;;;;;;;;;;;22.67;38.67;100010.75;4402852;32;34894;-57
2021/04/10 05:14:36;;;;;;;;;;;;;;;22.67;38.74;100017.03;4407780;32;33872;-54
2021/04/10 05:17:03;;;;;;;;;;;;;;;22.67;38.70;100019.75;4407645;32;33369;-58
2021/04/10 05:19:30;;;;;;;;;;;;;;;22.67;38.70;100033.34;4407714;32;34192;-57
2021/04/10 05:21:58;;;;;;;;;;;;;;;22.68;38.80;100039.63;4407743;32;33762;-56
2021/04/10 05:24:25;;;;;;;;;;;;;;;22.67;38.75;100044.22;4397034;32;34853;-59
2021/04/10 05:26:52;;;;;;;;;;;;;;;22.68;38.72;100045.06;4392510;32;32985;-56
2021/04/10 05:29:18;;;;;;;;;;;;;;;22.67;38.63;100043.38;4392268;32;33928;-57
2021/04/10 05:31:46;;;;;;;;;;;;;;;22.68;38.63;100053.22;4392419;32;35011;-56
2021/04/10 05:34:13;;;;;;;;;;;;;;;22.67;38.71;100046.94;4378906;32;35016;-55
2021/04/10 05:36:39;;;;;;;;;;;;;;;22.67;38.72;100041.50;4392211;32;33312;-56
2021/04/10 05:39:07;;;;;;;;;;;;;;;22.67;38.71;100041.50;4392440;32;34974;-54
2021/04/10 05:41:33;;;;;;;;;;;;;;;22.67;38.72;100037.94;4392340;32;34075;-57
2021/04/10 05:44:00;;;;;;;;;;;;;;;22.69;38.83;100040.44;4392246;32;33763;-57
2021/04/10 05:46:27;;;;;;;;;;;;;;;22.67;38.72;100036.06;4392317;32;33294;-56
2021/04/10 05:48:54;;;;;;;;;;;;;;;22.66;38.61;100034.41;4392357;32;35286;-57
2021/04/10 05:51:21;;;;;;;;;;;;;;;22.66;38.74;100037.13;4392319;32;34068;-56
2021/04/10 05:53:49;;;;;;;;;;;;;;;22.67;38.57;100029.78;4392354;32;34063;-55
2021/04/10 05:56:16;;;;;;;;;;;;;;;22.66;38.65;100037.13;4392386;32;33240;-56
2021/04/10 05:58:43;;;;;;;;;;;;;;;22.66;38.62;100030.81;4387936;32;35590;-55
2021/04/10 06:01:10;;;;;;;;;;;;;;;22.66;38.74;100030.81;4396904;32;34986;-57
2021/04/10 06:03:37;;;;;;;;;;;;;;;22.65;38.68;100027.25;4383149;32;34199;-54
2021/04/10 06:06:04;;;;;;;;;;;;;;;22.65;38.70;100023.72;4407302;32;33361;-56
2021/04/10 06:08:30;;;;;;;;;;;;;;;22.65;38.64;100021.81;4400313;32;34144;-58
2021/04/10 06:10:58;;;;;;;;;;;;;;;22.66;38.59;100036.25;4391881;32;34183;-57
2021/04/10 06:13:24;;;;;;;;;;;;;;;22.65;38.65;100026.44;4392042;32;34790;-57
2021/04/10 06:15:51;;;;;;;;;;;;;;;22.64;38.62;100036.47;4392287;32;33114;-52
2021/04/10 06:18:19;;;;;;;;;;;;;;;22.64;38.73;100032.94;4392110;32;34163;-59
2021/04/10 06:20:46;;;;;;;;;;;;;;;22.64;38.70;100038.38;4398225;32;34107;-53
2021/04/10 06:23:13;;;;;;;;;;;;;;;22.63;38.63;100048.41;4390630;32;33791;-59
2021/04/10 06:25:40;;;;;;;;;;;;;;;22.63;38.70;100042.97;4407446;32;34174;-58
2021/04/10 06:28:07;;;;;;;;;;;;;;;22.63;38.73;100039.44;4399904;32;34075;-57
2021/04/10 06:30:34;;;;;;;;;;;;;;;22.63;38.76;100040.25;4392186;32;34206;-54
2021/04/10 06:33:01;;;;;;;;;;;;;;;22.63;38.78;100036.72;4392035;32;34250;-59
2021/04/10 06:35:28;;;;;;;;;;;;;;;22.63;38.76;100034.81;4392141;32;34026;-55
2021/04/10 06:37:54;;;;;;;;;;;;;;;22.64;38.85;100041.09;4392025;32;34094;-53
2021/04/10 06:40:22;;;;;;;;;;;;;;;22.63;38.89;100032.09;4399700;32;35014;-59
2021/04/10 06:42:48;;;;;;;;;;;;;;;22.65;38.83;100029.97;4407070;32;34047;-57
2021/04/10 06:45:15;;;;;;;;;;;;;;;22.64;38.60;100031.03;4402604;32;34028;-57
2021/04/10 06:47:43;;;;;;;;;;;;;;;22.64;38.94;100030.22;4385248;32;34100;-58
2021/04/10 06:50:10;;;;;;;;;;;;;;;22.64;38.88;100028.31;4403907;32;34248;-56
2021/04/10 06:52:38;;;;;;;;;;;;;;;22.64;38.75;100033.75;4403446;32;33670;-56
2021/04/10 06:55:12;;;;;;;;;;;;;;;22.64;38.66;100033.75;4378513;32;32853;-59
2021/04/10 06:57:41;;;;;;;;;;;;;;;22.64;38.80;100032.94;4391599;32;34821;-59
2021/04/10 07:00:11;;;;;;;;;;;;;;;22.59;38.32;100039.00;4378216;32;34069;-59
2021/04/10 07:02:38;;;;;;;;;;;;;;;22.58;37.99;100033.81;4391914;32;34214;-60
2021/04/10 07:05:06;;;;;;;;;;;;;;;22.56;37.51;100027.72;4383879;32;33851;-60
2021/04/10 07:07:33;;;;;;;;;;;;;;;22.53;37.47;100036.34;4406980;32;33900;-59
2021/04/10 07:10:01;;;;;;;;;;;;;;;22.49;36.94;100035.09;4406969;32;34202;-58
2021/04/10 07:12:27;;;;;;;;;;;;;;;22.45;36.98;100039.28;4406774;32;34115;-60
2021/04/10 07:14:55;;;;;;;;;;;;;;;22.47;36.79;100034.44;4406993;32;33562;-59
2021/04/10 07:17:21;;;;;;;;;;;;;;;22.47;36.59;100043.44;4406911;32;34913;-60
2021/04/10 07:19:48;;;;;;;;;;;;;;;22.48;37.19;100033.44;4406713;32;34067;-60
2021/04/10 07:22:15;;;;;;;;;;;;;;;22.48;36.56;100031.53;4405919;32;34752;-60
2021/04/10 07:24:43;;;;;;;;;;;;;;;22.44;36.30;100041.16;4406791;32;33154;-58
2021/04/10 07:27:18;;;;;;;;;;;;;;;22.41;36.16;100038.88;4406635;32;35119;-59
2021/04/10 07:29:48;;;;;;;;;;;;;;;22.44;35.72;100037.63;4406727;32;34099;-60
2021/04/10 07:32:24;;;;;;;;;;;;;;;22.44;34.33;100040.34;4392678;32;34184;-59
2021/04/10 07:34:52;;;;;;;;;;;;;;;22.46;34.45;100028.19;4406680;32;33349;-60
2021/04/10 07:37:28;;;;;;;;;;;;;;;22.51;34.52;100038.41;4396169;32;33852;-61
2021/04/10 07:39:55;;;;;;;;;;;;;;;22.56;34.50;100034.00;4391527;32;34060;-61
2021/04/10 07:42:26;;;;;;;;;;;;;;;22.70;34.74;100031.22;4388831;32;34372;-59
2021/04/10 07:44:52;;;;;;;;;;;;;;;22.86;34.46;100034.28;4389090;32;33649;-59
2021/04/10 07:47:20;;;;;;;;;;;;;;;23.05;34.73;100042.59;4391116;32;33780;-60
2021/04/10 07:49:46;;;;;;;;;;;;;;;23.24;34.55;100030.75;4367941;32;34977;-60
2021/04/10 07:52:13;;;;;;;;;;;;;;;23.45;34.58;100032.28;4375915;32;34765;-59
2021/04/10 07:54:43;;;;;;;;;;;;;;;23.64;34.55;100042.22;4388372;32;33960;-59
2021/04/10 07:57:10;;;;;;;;;;;;;;;23.82;34.53;100041.41;4390810;32;33729;-60
2021/04/10 07:59:46;;;;;;;;;;;;;;;23.97;34.48;100035.66;4377344;32;33932;-60
2021/04/10 08:02:13;;;;;;;;;;;;;;;24.10;34.44;100040.13;4391107;32;34642;-55
2021/04/10 08:04:41;;;;;;;;;;;;;;;24.23;34.41;100047.34;4391079;32;33526;-60
2021/04/10 08:07:11;;;;;;;;;;;;;;;24.31;34.35;100041.59;4391161;32;33832;-58
2021/04/10 08:09:38;;;;;;;;;;;;;;;24.36;34.29;100031.69;4391099;32;35611;-60
2021/04/10 08:12:08;;;;;;;;;;;;;;;24.42;34.27;100032.69;4391244;32;34712;-59
2021/04/10 08:14:39;;;;;;;;;;;;;;;24.48;34.31;100033.66;4390800;32;33253;-59
2021/04/10 08:17:06;;;;;;;;;;;;;;;24.52;34.39;100037.59;4390848;32;34524;-59
2021/04/10 08:19:33;;;;;;;;;;;;;;;24.54;34.44;100043.66;4390786;32;33994;-60
2021/04/10 08:22:00;;;;;;;;;;;;;;;24.54;34.52;100041.78;4390912;32;34786;-60
2021/04/10 08:24:41;;;;;;;;;;;;;;;24.55;34.58;100046.16;4390836;32;32951;-61
2021/04/10 08:27:09;;;;;;;;;;;;;;;24.56;34.64;100039.63;4390565;32;34122;-58
2021/04/10 08:29:37;;;;;;;;;;;;;;;24.56;34.69;100041.53;4390590;32;34402;-58
2021/04/10 08:32:05;;;;;;;;;;;;;;;24.56;34.73;100044.25;4390706;32;33530;-60
2021/04/10 08:34:33;;;;;;;;;;;;;;;24.54;34.79;100044.50;4392512;32;33021;-59
2021/04/10 08:37:04;;;;;;;;;;;;;;;24.54;34.88;100054.59;4392291;32;34233;-60
2021/04/10 08:39:34;;;;;;;;;;;;;;;24.52;34.91;100053.97;4377622;32;34968;-60
2021/04/10 08:42:02;;;;;;;;;;;;;;;24.49;34.98;100052.53;4377985;32;34100;-60
2021/04/10 08:44:33;;;;;;;;;;;;;;;24.47;35.06;100062.00;4377597;32;33386;-59
2021/04/10 08:46:59;;;;;;;;;;;;;;;24.44;35.14;100060.56;4377431;32;34083;-57
2021/04/10 08:49:27;;;;;;;;;;;;;;;24.42;35.20;100065.41;4377572;32;34173;-60
2021/04/10 08:52:01;;;;;;;;;;;;;;;24.39;35.31;100049.50;4363850;32;34216;-59
2021/04/10 08:54:31;;;;;;;;;;;;;;;24.35;35.38;100059.16;4363879;32;34777;-60
2021/04/10 08:56:57;;;;;;;;;;;;;;;24.33;35.49;100056.66;4377532;32;34222;-60
2021/04/10 08:59:24;;;;;;;;;;;;;;;24.29;35.59;100057.31;4377556;32;34955;-58
2021/04/10 09:02:10;;;;;;;;;;;;;;;24.26;35.67;100060.53;4377329;32;34725;-59
2021/04/10 09:04:55;;;;;;;;;;;;;;;24.23;35.79;100050.06;4377528;32;33352;-60
2021/04/10 09:07:41;;;;;;;;;;;;;;;24.17;35.86;100039.00;4382539;32;34780;-57
2021/04/10 09:10:08;;;;;;;;;;;;;;;24.15;35.93;100045.72;4392326;32;34124;-60
2021/04/10 09:12:47;;;;;;;;;;;;;;;24.11;36.04;100052.72;4392142;32;34060;-58
2021/04/10 09:15:14;;;;;;;;;;;;;;;24.07;36.13;100038.69;4392531;32;33272;-60
2021/04/10 09:17:53;;;;;;;;;;;;;;;24.06;36.16;100039.75;4392262;32;34009;-61
2021/04/10 09:20:38;;;;;;;;;;;;;;;24.04;36.19;100035.56;4392101;32;34077;-59
2021/04/10 09:23:06;;;;;;;;;;;;;;;24.01;36.39;100045.03;4392428;32;34461;-57
2021/04/10 09:25:33;;;;;;;;;;;;;;;23.99;36.44;100040.87;4392473;32;33323;-60
2021/04/10 09:28:06;;;;;;;;;;;;;;;23.98;36.50;100041.94;4392061;32;33786;-59
2021/04/10 09:30:36;;;;;;;;;;;;;;;23.96;36.49;100046.75;4392186;32;33697;-60
2021/04/10 09:33:22;;;;;;;;;;;;;;;23.93;36.59;100043.44;4392334;32;34497;-59
2021/04/10 09:35:57;;;;;;;;;;;;;;;23.89;36.70;100042.22;4391944;32;34038;-57
2021/04/10 09:38:40;;;;;;;;;;;;;;;23.86;36.77;100053.56;4391905;32;34045;-59
2021/04/10 09:41:07;;;;;;;;;;;;;;;23.84;36.78;100039.31;4392293;32;34537;-60
2021/04/10 09:43:34;;;;;;;;;;;;;;;23.82;36.76;100040.59;4382733;32;34163;-59
2021/04/10 09:46:01;;;;;;;;;;;;;;;23.82;36.78;100035.12;4376603;32;34278;-59
2021/04/10 09:48:28;;;;;;;;;;;;;;;23.82;36.73;100035.12;4376967;32;34945;-60
2021/04/10 09:50:55;;;;;;;;;;;;;;;23.82;36.65;100048.78;4377073;32;34002;-61
2021/04/10 09:53:23;;;;;;;;;;;;;;;23.80;36.63;100043.56;4377031;32;34039;-62
2021/04/10 09:55:50;;;;;;;;;;;;;;;23.78;36.67;100044.81;4377339;32;33324;-60
2021/04/10 09:58:17;;;;;;;;;;;;;;;23.74;36.72;100035.44;4363181;32;34720;-60
2021/04/10 10:00:48;;;;;;;;;;;;;;;23.73;36.76;100040.03;4377214;32;34770;-61
2021/04/10 10:03:16;;;;;;;;;;;;;;;23.72;36.78;100043.00;4377001;32;34774;-61
2021/04/10 10:06:02;;;;;;;;;;;;;;;23.72;36.81;100015.75;4365356;32;33377;-61
2021/04/10 10:08:33;;;;;;;;;;;;;;;23.71;36.83;100027.72;4389668;32;34099;-59
2021/04/10 10:11:04;;;;;;;;;;;;;;;23.68;36.88;100026.25;4378301;32;34157;-60
2021/04/10 10:13:32;;;;;;;;;;;;;;;23.67;36.90;100022.69;4392029;32;33697;-59
2021/04/10 10:15:59;;;;;;;;;;;;;;;23.68;36.91;100026.25;4392337;32;33420;-60
2021/04/10 10:18:32;;;;;;;;;;;;;;;23.69;36.87;100019.78;4391943;32;34902;-61
2021/04/10 10:21:12;;;;;;;;;;;;;;;23.68;36.88;100016.19;4391875;32;34920;-59
2021/04/10 10:23:40;;;;;;;;;;;;;;;23.66;36.95;100020.22;4392218;32;34461;-60
2021/04/10 10:26:10;;;;;;;;;;;;;;;23.64;36.98;100025.88;4391863;32;32816;-60
2021/04/10 10:28:38;;;;;;;;;;;;;;;23.64;37.02;100022.31;4391941;32;33756;-59
2021/04/10 10:31:12;;;;;;;;;;;;;;;23.62;37.03;100017.06;4392180;32;34991;-60
2021/04/10 10:33:39;;;;;;;;;;;;;;;23.63;37.00;100015.16;4391739;32;35602;-59
2021/04/10 10:36:06;;;;;;;;;;;;;;;23.62;37.00;100016.22;4391925;32;33478;-58
2021/04/10 10:38:34;;;;;;;;;;;;;;;23.61;37.05;100023.56;4391775;32;34757;-61
2021/04/10 10:41:02;;;;;;;;;;;;;;;23.60;37.06;100026.53;4392083;32;34708;-61
2021/04/10 10:43:29;;;;;;;;;;;;;;;23.58;37.07;100021.28;4391881;32;34124;-61
2021/04/10 10:45:57;;;;;;;;;;;;;;;23.56;37.21;100011.69;4391776;32;33325;-61
2021/04/10 10:48:25;;;;;;;;;;;;;;;23.54;37.17;100011.88;4392089;32;33767;-61
2021/04/10 10:50:54;;;;;;;;;;;;;;;23.53;37.14;100014.84;4392125;32;34896;-61
2021/04/10 10:53:21;;;;;;;;;;;;;;;23.52;37.16;100013.16;4391776;32;34873;-61
2021/04/10 10:56:15;;;;;;;;;;;;;;;23.49;37.17;100014.44;4391643;32;33377;-61
2021/04/10 10:58:46;;;;;;;;;;;;;;;23.48;37.18;100006.50;4368008;32;35235;-61
2021/04/10 11:01:23;;;;;;;;;;;;;;;23.46;37.15;100008.62;4392175;32;35112;-61
2021/04/10 11:04:09;;;;;;;;;;;;;;;23.45;37.14;100002.31;4390964;32;34704;-61
2021/04/10 11:06:39;;;;;;;;;;;;;;;23.43;37.13;100005.25;4391987;32;33231;-60
2021/04/10 11:09:08;;;;;;;;;;;;;;;23.40;37.14;99999.41;4391648;32;34149;-61
2021/04/10 11:11:41;;;;;;;;;;;;;;;23.39;37.13;100001.31;4378238;32;33984;-61
2021/04/10 11:14:08;;;;;;;;;;;;;;;23.38;37.13;99994.22;4378214;32;33624;-61
2021/04/10 11:16:42;;;;;;;;;;;;;;;23.37;37.13;99997.16;4391815;32;32850;-61
2021/04/10 11:19:09;;;;;;;;;;;;;;;23.36;37.12;100000.91;4391780;32;33817;-61
2021/04/10 11:21:36;;;;;;;;;;;;;;;23.34;37.13;99995.69;4391738;32;34097;-61
2021/04/10 11:24:02;;;;;;;;;;;;;;;23.34;37.13;99994.88;4391764;32;34196;-61
2021/04/10 11:26:49;;;;;;;;;;;;;;;23.33;37.11;99993.22;4391794;32;34129;-61
2021/04/10 11:29:19;;;;;;;;;;;;;;;23.32;37.13;99991.56;4391543;32;33694;-61
2021/04/10 11:32:04;;;;;;;;;;;;;;;23.29;37.14;99992.81;4391593;32;34966;-61
2021/04/10 11:34:36;;;;;;;;;;;;;;;23.27;37.15;99992.22;4391558;32;34544;-58
2021/04/10 11:37:05;;;;;;;;;;;;;;;23.26;37.18;99993.25;4391535;32;33219;-61
2021/04/10 11:39:35;;;;;;;;;;;;;;;23.25;37.18;99983.41;4385259;32;34200;-61
2021/04/10 11:42:02;;;;;;;;;;;;;;;23.24;37.09;99986.37;4377036;32;35539;-60
2021/04/10 11:44:36;;;;;;;;;;;;;;;23.24;37.05;99980.91;4389484;32;34578;-61
2021/04/10 11:47:04;;;;;;;;;;;;;;;23.24;37.06;99972.75;4375970;32;34069;-58
2021/04/10 11:49:31;;;;;;;;;;;;;;;23.25;37.11;99985.31;4376180;32;34064;-61
2021/04/10 11:52:07;;;;;;;;;;;;;;;23.23;37.18;99969.19;4376181;32;33324;-61
2021/04/10 11:54:36;;;;;;;;;;;;;;;23.24;37.18;99965.41;4376156;32;34170;-61
2021/04/10 11:57:31;;;;;;;;;;;;;;;23.25;37.24;99956.19;4381866;32;33185;-62
2021/04/10 11:59:58;;;;;;;;;;;;;;;23.26;37.21;99959.75;4390877;32;34866;-60
2021/04/10 12:02:25;;;;;;;;;;;;;;;23.24;37.32;99953.69;4390925;32;35577;-59
2021/04/10 12:04:52;;;;;;;;;;;;;;;23.25;37.31;99955.34;4390910;32;34068;-60
2021/04/10 12:07:19;;;;;;;;;;;;;;;23.25;37.36;99952.63;4377477;32;32822;-59
2021/04/10 12:09:46;;;;;;;;;;;;;;;23.24;37.38;99949.09;4392597;32;34160;-60
2021/04/10 12:12:13;;;;;;;;;;;;;;;23.24;37.41;99934.66;4393019;32;34088;-59
2021/04/10 12:14:40;;;;;;;;;;;;;;;23.24;37.43;99946.38;4392784;32;34411;-61
2021/04/10 12:17:11;;;;;;;;;;;;;;;23.25;37.48;99944.47;4392991;32;34174;-61
2021/04/10 12:19:39;;;;;;;;;;;;;;;23.23;37.47;99936.53;4392708;32;34097;-59
2021/04/10 12:22:05;;;;;;;;;;;;;;;23.23;37.59;99932.97;4391981;32;33714;-60
2021/04/10 12:24:32;;;;;;;;;;;;;;;23.23;37.48;99932.97;4392750;32;34136;-61
2021/04/10 12:26:59;;;;;;;;;;;;;;;23.25;37.39;99930.84;4392961;32;33252;-61
2021/04/10 12:29:26;;;;;;;;;;;;;;;23.22;37.41;99931.28;4392700;32;34799;-61
2021/04/10 12:31:53;;;;;;;;;;;;;;;23.20;37.46;99927.97;4393084;32;34166;-61
2021/04/10 12:34:20;;;;;;;;;;;;;;;23.19;37.49;99920.88;4383778;32;34111;-61
2021/04/10 12:36:49;;;;;;;;;;;;;;;23.18;37.48;99920.03;4377588;32;33754;-46
2021/04/10 12:39:16;;;;;;;;;;;;;;;23.17;37.46;99908.31;4371440;32;34928;-61
2021/04/10 12:41:43;;;;;;;;;;;;;;;23.16;37.43;99909.34;4392447;32;34933;-59
2021/04/10 12:44:09;;;;;;;;;;;;;;;23.15;37.35;99909.59;4392666;32;34084;-60
2021/04/10 12:46:36;;;;;;;;;;;;;;;23.15;37.22;99904.13;4387747;32;33259;-61
2021/04/10 12:49:04;;;;;;;;;;;;;;;23.13;37.20;99909.81;4363650;32;33414;-61